Airfield :
LOGIN :

Register | Disclaimer

   EN    FR    IT 

 










Legend :    VFR   Marginal VFR   IFR   Intensive IFR   Very Intensive IFR
Visi :
Ceiling :
>= 8 km
>= 3000ft
5 to 8 km
1000 to 3000 ft
1500m to 5 km
500 to 1000 ft
800 to 1500m
200 to 500 ft
< 800m
< 200 ft
Symbols :   Thunderstorms  Fog  Heavy snow  Heavy precipitations  Wind > 20 kt
SIGMETs :     Misc.  Thunderstorms  Icing  Turbulence  Mountain Waves  Volcanic Ashes






- Airport Elevation : 1411 ft
- IATA code : SZG


LOWS - Salzburg

CURRENT METAR :
  • 200120Z AUTO VRB01KT 6000 FEW020 01/01 Q1017

EXPIRED METARs :
  • 200050Z AUTO 29002KT 4700 BR FEW019 00/M00 Q1017
  • 200020Z AUTO VRB01KT 6000 FEW018 01/01 Q1017
  • 192350Z AUTO VRB01KT 7000 FEW017 02/01 Q1017
  • 192320Z AUTO VRB02KT 9999 FEW019 03/02 Q1017
  • 192250Z AUTO 33003KT 9999 FEW020 BKN028 03/02 Q1017

TAF TAF LOWS
Valid from the 20 at 00:00 until the 21 at 00:00 UTC


192315Z 2000/2024 14003KT 9999 SCT012 BKN020 TX05/2011Z TN02/2006Z
TEMPO 2000/2010 32004KT 4000 BR SCT008 BKN012
PROB30
TEMPO 2002/2008 VRB01KT 1200 BCFG BKN005
BECMG 2008/2010 34005KT
BECMG 2016/2018 15004KT 6000 SCT008 BKN012
TEMPO 2018/2024 VRB02KT 2500 BR SCT005 BKN008



MET'MAP, your aeronautical weather chart ! - Copyright ORBIFLY December 2007 - Disclaimer

ORBIFLY MET'MAP TEAM :

Programming & Development : Alexandra Zaïnal
Concept & Development : Baudouin d'Aumeries
Co-Development & Prog : Marc-Olivier Méhu
Technical & hardware support : Manuel Goepfert

Contact : metmap@orbifly.com




SOURCES & CREDITS :

   NOAA